Time;durP1;ratioP1;P1;durP2;ratioP2;P2;SDS_P1;SDS_P2;PMS_P1;PMS_P2;Temp;Humidity;BMP_temperature;BMP_pressure;BME280_temperature;BME280_humidity;BME280_pressure;Samples;Min_cycle;Max_cycle;Signal;HPM_P1;HPM_P2
2023/05/22 00:02:14;;;;;;;5.80;5.30;;;15.70;99.90;;;;;;1917024;75;21176;-82
2023/05/22 00:05:08;;;;;;;5.80;5.20;;;15.70;99.90;;;;;;1917118;75;21572;-82
2023/05/22 00:08:00;;;;;;;6.42;5.75;;;15.70;99.90;;;;;;1916983;75;21109;-82
2023/05/22 00:10:51;;;;;;;8.03;7.22;;;15.60;99.90;;;;;;1916968;75;21082;-82
2023/05/22 00:13:43;;;;;;;11.22;6.53;;;15.60;99.90;;;;;;1917092;75;21232;-83
2023/05/22 00:16:35;;;;;;;6.85;6.12;;;15.50;99.90;;;;;;1916937;75;21654;-82
2023/05/22 00:19:29;;;;;;;7.20;6.10;;;15.50;99.90;;;;;;1916584;75;21095;-82
2023/05/22 00:22:19;;;;;;;6.83;6.12;;;15.40;99.90;;;;;;1916800;73;21570;-82
2023/05/22 00:25:12;;;;;;;10.80;8.30;;;15.40;99.90;;;;;;1916870;75;21495;-82
2023/05/22 00:28:04;;;;;;;7.50;6.80;;;15.40;99.90;;;;;;1908587;75;21179;-82
2023/05/22 00:30:55;;;;;;;7.42;6.65;;;15.40;99.90;;;;;;1916141;75;21106;-82
2023/05/22 00:33:46;;;;;;;8.20;6.67;;;15.30;99.90;;;;;;1921043;73;21055;-82
2023/05/22 00:36:45;;;;;;;8.28;6.62;;;15.40;99.90;;;;;;1930781;73;21113;-82
2023/05/22 00:39:36;;;;;;;10.68;7.58;;;15.40;99.90;;;;;;1934716;73;21060;-82
2023/05/22 00:42:28;;;;;;;15.98;10.55;;;15.40;99.90;;;;;;1904001;75;21098;-82
2023/05/22 00:45:22;;;;;;;8.25;7.08;;;15.30;99.90;;;;;;1926327;74;21087;-82
2023/05/22 00:48:14;;;;;;;7.75;7.05;;;15.20;99.90;;;;;;1924190;74;21640;-82
2023/05/22 00:51:07;;;;;;;7.92;7.10;;;15.20;99.90;;;;;;1916234;75;21103;-82
2023/05/22 00:53:59;;;;;;;7.80;6.45;;;15.30;99.90;;;;;;1938917;73;21188;-82
2023/05/22 00:56:52;;;;;;;9.85;6.37;;;15.30;99.90;;;;;;1916313;75;21090;-83
2023/05/22 00:59:45;;;;;;;7.25;6.55;;;15.30;99.90;;;;;;1916538;73;21093;-83
2023/05/22 01:02:36;;;;;;;7.92;6.05;;;15.30;99.90;;;;;;1919636;74;21127;-83
2023/05/22 01:05:28;;;;;;;7.03;5.62;;;15.20;99.90;;;;;;1916288;75;21101;-83
2023/05/22 01:08:21;;;;;;;7.75;6.60;;;15.10;99.90;;;;;;1903558;75;21549;-83
2023/05/22 01:11:15;;;;;;;7.83;6.58;;;15.20;99.90;;;;;;1917294;73;21129;-82
2023/05/22 01:14:09;;;;;;;8.23;6.50;;;15.20;99.90;;;;;;1931013;73;22266;-83
2023/05/22 01:17:07;;;;;;;7.15;6.40;;;15.20;99.90;;;;;;1904028;75;21095;-82
2023/05/22 01:20:06;;;;;;;6.85;6.15;;;15.20;99.90;;;;;;1916407;75;21592;-82
2023/05/22 01:23:47;;;;;;;7.83;6.33;;;15.30;99.90;;;;;;1939236;73;21129;-82
2023/05/22 01:29:55;;;;;;;6.25;5.72;;;15.40;99.90;;;;;;1955311;72;22161;-82
2023/05/22 01:32:48;;;;;;;6.75;5.62;;;15.40;99.90;;;;;;1895136;74;21064;-82
2023/05/22 01:35:41;;;;;;;7.37;5.80;;;15.50;99.90;;;;;;1894824;75;21102;-82
2023/05/22 01:38:35;;;;;;;6.60;5.95;;;15.50;99.90;;;;;;1897170;75;21211;-82
2023/05/22 01:41:27;;;;;;;7.83;5.90;;;15.50;99.90;;;;;;1899885;75;22206;-82
2023/05/22 01:44:19;;;;;;;6.37;5.78;;;15.50;99.90;;;;;;1894988;75;21633;-84
2023/05/22 01:47:11;;;;;;;8.45;5.90;;;15.40;99.90;;;;;;1894846;75;21153;-84
2023/05/22 01:50:04;;;;;;;6.25;5.50;;;15.40;99.90;;;;;;1894884;75;21164;-83
2023/05/22 01:53:00;;;;;;;6.75;5.90;;;15.50;99.90;;;;;;1899091;75;21117;-82
2023/05/22 01:55:56;;;;;;;5.97;5.47;;;15.50;99.90;;;;;;1897401;75;21090;-82
2023/05/22 01:58:51;;;;;;;6.05;5.45;;;15.50;99.90;;;;;;1886014;75;21155;-82
2023/05/22 02:01:43;;;;;;;6.55;5.97;;;15.50;99.90;;;;;;1888801;75;21156;-82
2023/05/22 02:04:38;;;;;;;6.17;5.58;;;15.50;99.90;;;;;;1894916;75;21172;-82
2023/05/22 02:07:32;;;;;;;6.03;5.42;;;15.50;99.90;;;;;;1901433;75;21082;-82
2023/05/22 02:10:26;;;;;;;7.33;5.47;;;15.50;99.90;;;;;;1896445;75;21111;-82
2023/05/22 02:13:17;;;;;;;6.17;5.58;;;15.60;99.90;;;;;;1894924;75;21048;-82
2023/05/22 02:16:10;;;;;;;6.40;5.90;;;15.60;99.90;;;;;;1914052;75;21160;-82
2023/05/22 02:19:05;;;;;;;6.35;5.75;;;15.50;99.90;;;;;;1904511;75;21052;-83
2023/05/22 02:21:55;;;;;;;6.78;6.17;;;15.50;99.90;;;;;;1884157;76;21095;-83
2023/05/22 02:24:49;;;;;;;6.97;6.28;;;15.50;99.90;;;;;;1915953;75;21121;-82
2023/05/22 02:27:41;;;;;;;8.68;6.00;;;15.50;99.90;;;;;;1894968;75;21086;-82
2023/05/22 02:30:33;;;;;;;8.48;6.50;;;15.40;99.90;;;;;;1883475;74;21155;-82
2023/05/22 02:33:25;;;;;;;6.65;5.92;;;15.40;99.90;;;;;;1887556;75;21139;-83
2023/05/22 02:36:17;;;;;;;8.30;5.25;;;15.30;99.90;;;;;;1872347;76;21091;-82
2023/05/22 02:39:09;;;;;;;6.17;5.50;;;15.30;99.90;;;;;;1906458;75;21172;-82
2023/05/22 02:42:02;;;;;;;7.47;5.95;;;15.30;99.90;;;;;;1886056;75;21156;-82
2023/05/22 02:44:54;;;;;;;6.42;5.83;;;15.30;99.90;;;;;;1897444;75;21122;-82
2023/05/22 02:47:45;;;;;;;6.30;5.70;;;15.30;99.90;;;;;;1897083;75;21098;-82
2023/05/22 02:50:37;;;;;;;6.58;5.67;;;15.30;99.90;;;;;;1894407;75;21200;-83
2023/05/22 02:53:29;;;;;;;5.95;5.35;;;15.20;99.90;;;;;;1890610;75;21103;-83
2023/05/22 02:56:21;;;;;;;6.45;5.72;;;15.20;99.90;;;;;;1904118;75;21100;-83
2023/05/22 02:59:12;;;;;;;6.25;5.65;;;15.20;99.90;;;;;;1886990;75;21095;-82
2023/05/22 03:02:05;;;;;;;5.80;5.30;;;15.20;99.90;;;;;;1893750;75;21679;-83
2023/05/22 03:04:58;;;;;;;6.25;5.65;;;15.20;99.90;;;;;;1893437;75;21165;-82
2023/05/22 03:07:49;;;;;;;8.20;5.50;;;15.10;99.90;;;;;;1893311;75;21083;-82
2023/05/22 03:10:42;;;;;;;6.17;5.58;;;15.10;99.90;;;;;;1888743;75;21546;-82
2023/05/22 03:13:34;;;;;;;6.00;5.40;;;15.10;99.90;;;;;;1904300;75;21110;-83
2023/05/22 03:16:26;;;;;;;7.62;5.70;;;15.10;99.90;;;;;;1905568;75;21102;-83
2023/05/22 03:19:18;;;;;;;6.72;6.12;;;15.00;99.90;;;;;;1905468;75;21103;-83
2023/05/22 03:22:10;;;;;;;7.17;5.97;;;14.90;99.90;;;;;;1902010;75;21113;-83
2023/05/22 03:25:02;;;;;;;6.55;5.85;;;14.90;99.90;;;;;;1884552;75;21051;-83
2023/05/22 03:27:54;;;;;;;6.50;5.87;;;14.90;99.90;;;;;;1873966;75;21198;-83
2023/05/22 03:30:47;;;;;;;7.65;5.67;;;14.90;99.90;;;;;;1874996;75;21504;-83
2023/05/22 03:33:43;;;;;;;6.97;6.25;;;14.90;99.90;;;;;;1892327;75;21087;-83
2023/05/22 03:36:35;;;;;;;6.92;6.33;;;14.90;99.90;;;;;;1886890;75;21153;-82
2023/05/22 03:39:26;;;;;;;8.25;6.17;;;14.90;99.90;;;;;;1882984;75;21110;-82
2023/05/22 03:42:23;;;;;;;6.50;5.90;;;14.90;99.90;;;;;;1878663;75;21094;-81
2023/05/22 03:45:14;;;;;;;6.97;6.28;;;14.90;99.90;;;;;;1914202;75;21147;-82
2023/05/22 03:48:06;;;;;;;6.97;5.85;;;14.80;99.90;;;;;;1870853;75;21255;-82
2023/05/22 03:50:58;;;;;;;6.85;6.22;;;14.80;99.90;;;;;;1883264;76;21082;-82
2023/05/22 03:53:49;;;;;;;6.58;5.97;;;14.80;99.90;;;;;;1880227;75;21098;-82
2023/05/22 03:56:41;;;;;;;7.90;6.20;;;14.70;99.90;;;;;;1878250;75;21100;-82
2023/05/22 03:59:32;;;;;;;8.55;6.47;;;14.70;99.90;;;;;;1891938;75;21173;-82
2023/05/22 04:02:25;;;;;;;7.50;6.75;;;14.70;99.90;;;;;;1888398;75;21138;-82
2023/05/22 04:05:16;;;;;;;9.03;6.12;;;14.60;99.90;;;;;;1905339;75;21134;-82
2023/05/22 04:08:08;;;;;;;7.05;5.95;;;14.60;99.90;;;;;;1871560;75;21110;-82
2023/05/22 04:11:00;;;;;;;6.87;6.25;;;14.50;99.90;;;;;;1893261;75;21087;-84
2023/05/22 04:13:51;;;;;;;6.85;5.92;;;14.40;99.90;;;;;;1887108;75;21091;-83
2023/05/22 04:16:43;;;;;;;6.95;6.30;;;14.40;99.90;;;;;;1882712;75;21048;-83
2023/05/22 04:19:34;;;;;;;6.58;5.97;;;14.40;99.90;;;;;;1894131;75;21099;-82
2023/05/22 04:22:26;;;;;;;6.85;6.15;;;14.40;99.90;;;;;;1882321;75;21122;-83
2023/05/22 04:25:17;;;;;;;7.83;6.17;;;14.40;99.90;;;;;;1886417;75;21100;-83
2023/05/22 04:28:09;;;;;;;10.05;6.90;;;14.40;99.90;;;;;;1871406;75;21161;-83
2023/05/22 04:31:05;;;;;;;6.97;6.15;;;14.40;99.90;;;;;;1885785;75;22168;-82
2023/05/22 04:33:55;;;;;;;7.47;6.17;;;14.40;99.90;;;;;;1914183;74;21101;-83
2023/05/22 04:36:48;;;;;;;6.40;5.83;;;14.40;99.90;;;;;;1892301;76;21447;-83
2023/05/22 04:39:40;;;;;;;10.85;7.37;;;14.40;99.90;;;;;;1907650;74;21185;-82
2023/05/22 04:42:33;;;;;;;9.13;6.42;;;14.50;99.90;;;;;;1903048;74;21054;-82
2023/05/22 04:45:27;;;;;;;6.70;6.10;;;14.50;99.90;;;;;;1921737;74;21126;-82
2023/05/22 04:48:21;;;;;;;7.62;6.25;;;14.60;99.90;;;;;;1914298;74;21123;-82
2023/05/22 04:51:13;;;;;;;7.10;6.40;;;14.60;99.90;;;;;;1909077;74;21086;-82
2023/05/22 04:54:05;;;;;;;7.10;6.40;;;14.60;99.90;;;;;;1903789;74;21090;-82
2023/05/22 04:56:56;;;;;;;7.70;6.37;;;14.70;99.90;;;;;;1896889;74;21135;-82
2023/05/22 04:59:49;;;;;;;11.57;6.55;;;14.60;99.90;;;;;;1891984;76;21142;-82
2023/05/22 05:02:41;;;;;;;8.05;6.60;;;14.60;99.90;;;;;;1891466;74;21415;-82
2023/05/22 05:05:33;;;;;;;7.60;6.90;;;14.70;99.90;;;;;;1892130;74;21206;-84
2023/05/22 05:08:25;;;;;;;7.47;6.70;;;14.70;99.90;;;;;;1913871;74;21198;-81
2023/05/22 05:11:16;;;;;;;6.85;6.25;;;14.60;99.90;;;;;;1895873;74;21196;-81
2023/05/22 05:14:08;;;;;;;8.20;6.53;;;14.70;99.90;;;;;;1904308;74;21488;-81
2023/05/22 05:17:01;;;;;;;8.25;6.22;;;14.80;99.90;;;;;;1907374;74;21168;-81
2023/05/22 05:19:52;;;;;;;7.70;7.00;;;14.80;99.90;;;;;;1903797;74;21047;-80
2023/05/22 05:22:44;;;;;;;10.03;6.83;;;14.90;99.90;;;;;;1903040;74;21172;-82
2023/05/22 05:25:38;;;;;;;6.97;6.33;;;14.90;99.90;;;;;;1922302;74;21097;-80
2023/05/22 05:28:29;;;;;;;7.50;6.70;;;15.00;99.90;;;;;;1908297;74;21150;-80
2023/05/22 05:31:22;;;;;;;7.42;6.67;;;15.00;99.90;;;;;;1903691;74;21137;-80
2023/05/22 05:34:16;;;;;;;8.20;7.03;;;15.00;99.90;;;;;;1895850;73;21742;-80
2023/05/22 05:37:12;;;;;;;7.83;7.12;;;14.90;99.90;;;;;;1902195;75;21637;-80
2023/05/22 05:40:05;;;;;;;9.30;6.40;;;14.90;99.90;;;;;;1866904;76;21141;-80
2023/05/22 05:42:59;;;;;;;6.72;6.10;;;15.00;99.90;;;;;;1898259;75;21624;-80
2023/05/22 05:45:52;;;;;;;7.90;7.10;;;15.00;99.90;;;;;;1883576;75;21140;-80
2023/05/22 05:48:44;;;;;;;7.80;6.70;;;15.00;99.90;;;;;;1905372;75;21086;-80
2023/05/22 05:51:37;;;;;;;7.55;6.75;;;15.20;99.90;;;;;;1888614;75;21225;-80
2023/05/22 05:54:29;;;;;;;8.03;6.53;;;15.20;99.90;;;;;;1905100;74;21626;-81
2023/05/22 05:57:23;;;;;;;9.68;6.50;;;15.30;99.90;;;;;;1859635;76;21125;-81
2023/05/22 06:00:15;;;;;;;8.75;7.00;;;15.40;99.90;;;;;;1908597;75;21098;-81
2023/05/22 06:03:09;;;;;;;9.80;6.83;;;15.50;99.90;;;;;;1904909;75;21090;-81
2023/05/22 06:06:14;;;;;;;7.28;6.45;;;15.50;99.90;;;;;;1904828;75;21204;-81
2023/05/22 06:09:16;;;;;;;9.10;7.12;;;15.60;99.90;;;;;;1883161;75;21152;-81
2023/05/22 06:12:25;;;;;;;8.05;6.58;;;15.60;99.90;;;;;;1902287;75;21171;-80
2023/05/22 06:15:17;;;;;;;7.25;6.55;;;15.70;99.90;;;;;;1916201;75;21091;-80
2023/05/22 06:18:09;;;;;;;9.15;6.58;;;15.80;99.90;;;;;;1907351;75;21110;-81
2023/05/22 06:21:01;;;;;;;7.80;6.53;;;15.80;99.90;;;;;;1905253;75;21152;-81
2023/05/22 06:23:54;;;;;;;7.53;6.15;;;15.90;99.90;;;;;;1903946;75;21164;-80
2023/05/22 06:26:46;;;;;;;8.10;6.20;;;16.00;99.90;;;;;;1891841;75;21102;-80
2023/05/22 06:29:37;;;;;;;9.25;6.15;;;16.10;99.90;;;;;;1885865;76;21109;-80
2023/05/22 06:32:29;;;;;;;8.83;6.20;;;16.10;99.90;;;;;;1904921;74;21401;-80
2023/05/22 06:35:21;;;;;;;7.78;6.12;;;16.20;99.90;;;;;;1884553;75;21106;-80
2023/05/22 06:38:13;;;;;;;7.15;6.45;;;16.30;99.90;;;;;;1871288;77;21165;-81
2023/05/22 06:41:04;;;;;;;8.98;6.28;;;16.40;99.90;;;;;;1878605;74;21089;-80
2023/05/22 06:43:56;;;;;;;6.70;6.00;;;16.40;99.90;;;;;;1848401;77;21099;-80
2023/05/22 06:46:49;;;;;;;7.85;6.33;;;16.50;99.90;;;;;;1844286;77;21111;-80
2023/05/22 06:52:22;;;;;;;8.65;5.85;;;16.70;99.90;;;;;;1940744;72;22946;-79
2023/05/22 06:57:54;;;;;;;7.03;6.17;;;16.80;99.90;;;;;;1945823;72;22279;-79
2023/05/22 07:00:47;;;;;;;6.95;5.80;;;16.80;99.90;;;;;;1885993;75;21587;-79
2023/05/22 07:03:40;;;;;;;6.95;6.08;;;16.80;99.90;;;;;;1873270;75;21527;-79
2023/05/22 07:06:50;;;;;;;8.13;5.90;;;16.80;99.90;;;;;;1900154;75;21162;-81
2023/05/22 07:09:42;;;;;;;8.05;6.17;;;16.90;99.90;;;;;;1882213;75;21109;-80
2023/05/22 07:12:34;;;;;;;7.53;5.95;;;17.00;99.90;;;;;;1887560;75;21169;-79
2023/05/22 07:15:25;;;;;;;6.72;6.03;;;17.20;99.90;;;;;;1886303;75;21102;-80
2023/05/22 07:18:18;;;;;;;6.20;5.60;;;17.30;99.90;;;;;;1882835;75;21088;-80
2023/05/22 07:21:10;;;;;;;7.20;5.78;;;17.40;99.90;;;;;;1871563;73;21606;-80
2023/05/22 07:24:07;;;;;;;7.15;5.05;;;17.50;99.90;;;;;;1889824;74;21129;-80
2023/05/22 07:26:55;;;;;;;6.25;5.47;;;17.60;99.90;;;;;;1887757;75;22258;-80
2023/05/22 07:29:48;;;;;;;7.85;5.62;;;17.60;99.90;;;;;;1881965;75;21110;-79
2023/05/22 07:32:40;;;;;;;7.00;5.80;;;17.70;99.90;;;;;;1877714;74;21150;-80
2023/05/22 07:35:33;;;;;;;7.90;5.55;;;17.80;99.90;;;;;;1890621;74;21043;-80
2023/05/22 07:38:26;;;;;;;6.42;5.47;;;17.90;99.90;;;;;;1903435;75;21152;-80
2023/05/22 07:41:20;;;;;;;7.28;5.70;;;18.00;99.90;;;;;;1895442;75;21118;-80
2023/05/22 07:44:13;;;;;;;12.95;6.12;;;18.20;99.90;;;;;;1873382;75;21101;-80
2023/05/22 07:47:05;;;;;;;33.63;8.45;;;18.20;99.90;;;;;;1886642;73;21388;-80
2023/05/22 07:52:38;;;;;;;42.03;9.45;;;18.40;99.90;;;;;;1943625;72;22144;-79
2023/05/22 07:55:30;;;;;;;25.85;7.22;;;18.50;99.90;;;;;;1892136;75;21094;-79
2023/05/22 07:58:23;;;;;;;6.85;5.25;;;18.60;99.90;;;;;;1891416;75;21704;-80
2023/05/22 08:01:15;;;;;;;7.00;5.37;;;18.60;99.90;;;;;;1904514;75;21636;-79
2023/05/22 08:04:07;;;;;;;6.20;5.40;;;18.70;99.90;;;;;;1901393;75;21088;-79
2023/05/22 08:07:00;;;;;;;5.65;5.00;;;18.70;99.90;;;;;;1906215;75;21114;-79
2023/05/22 08:09:52;;;;;;;5.95;5.28;;;18.90;99.90;;;;;;1879196;75;21086;-81
2023/05/22 08:12:44;;;;;;;7.22;5.37;;;19.00;99.90;;;;;;1859509;76;21102;-79
2023/05/22 08:15:36;;;;;;;5.85;5.28;;;19.10;99.90;;;;;;1902401;75;21125;-79
2023/05/22 08:18:28;;;;;;;6.67;5.58;;;19.20;99.90;;;;;;1904529;75;21128;-79
2023/05/22 08:21:20;;;;;;;6.00;5.40;;;19.20;99.90;;;;;;1900358;75;21149;-79
2023/05/22 08:24:16;;;;;;;6.25;5.10;;;19.20;99.90;;;;;;1895737;75;21125;-79
2023/05/22 08:27:09;;;;;;;6.50;5.00;;;19.10;99.90;;;;;;1896613;75;21115;-79
2023/05/22 08:30:02;;;;;;;5.45;4.97;;;19.20;99.90;;;;;;1899849;74;21180;-79
2023/05/22 08:32:54;;;;;;;5.37;4.83;;;19.20;99.90;;;;;;1892615;75;21176;-79
2023/05/22 08:35:46;;;;;;;5.80;5.22;;;19.30;99.90;;;;;;1892604;75;21122;-80
2023/05/22 08:38:38;;;;;;;5.58;5.08;;;19.40;99.90;;;;;;1888638;75;21132;-80
2023/05/22 08:41:29;;;;;;;5.85;5.12;;;19.50;99.90;;;;;;1893598;75;21581;-79
2023/05/22 08:44:21;;;;;;;7.62;5.28;;;19.50;99.90;;;;;;1883649;75;21121;-81
2023/05/22 08:47:13;;;;;;;6.17;5.30;;;19.60;99.90;;;;;;1892935;75;21130;-80
2023/05/22 08:50:26;;;;;;;6.55;5.05;;;19.70;99.90;;;;;;1905144;75;21096;-79
2023/05/22 08:53:22;;;;;;;5.65;5.08;;;19.80;99.90;;;;;;1891713;75;21090;-80
2023/05/22 08:56:12;;;;;;;5.95;4.85;;;19.90;99.90;;;;;;1909197;75;21630;-80
2023/05/22 08:59:10;;;;;;;6.62;5.28;;;19.90;99.90;;;;;;1900319;75;21165;-80
2023/05/22 09:02:02;;;;;;;5.40;4.87;;;19.90;99.90;;;;;;1902890;75;21590;-80
2023/05/22 09:04:56;;;;;;;5.95;5.35;;;20.00;99.90;;;;;;1897799;75;21142;-79
2023/05/22 09:07:47;;;;;;;6.10;5.05;;;20.00;99.90;;;;;;1902814;75;21142;-79
2023/05/22 09:10:39;;;;;;;5.65;5.12;;;20.00;99.90;;;;;;1898198;75;21180;-80
2023/05/22 09:16:12;;;;;;;6.40;5.60;;;20.00;99.90;;;;;;1965186;72;22298;-80
2023/05/22 09:19:04;;;;;;;6.55;5.17;;;20.00;99.90;;;;;;1905394;75;21083;-79
2023/05/22 09:22:02;;;;;;;6.65;4.95;;;20.10;99.90;;;;;;1909007;74;21997;-79
2023/05/22 09:24:58;;;;;;;6.75;4.95;;;20.20;99.90;;;;;;1904547;75;21585;-79
2023/05/22 09:27:49;;;;;;;5.83;5.22;;;20.30;99.90;;;;;;1912679;74;21108;-79
2023/05/22 09:30:41;;;;;;;7.90;4.80;;;20.50;99.90;;;;;;1904275;75;21123;-79
2023/05/22 09:33:33;;;;;;;5.37;4.80;;;20.60;99.90;;;;;;1924293;74;21172;-80
2023/05/22 09:36:32;;;;;;;7.12;5.03;;;20.70;99.90;;;;;;1904136;75;21097;-79
2023/05/22 09:39:24;;;;;;;5.37;4.37;;;20.80;99.90;;;;;;1904242;75;21146;-79
2023/05/22 09:42:17;;;;;;;5.12;4.70;;;20.80;99.90;;;;;;1909216;74;21159;-80
2023/05/22 09:45:10;;;;;;;4.92;4.40;;;21.00;99.90;;;;;;1915397;74;21087;-80
2023/05/22 09:48:01;;;;;;;4.50;4.10;;;21.10;99.90;;;;;;1904296;75;21203;-81
2023/05/22 09:50:55;;;;;;;4.70;4.30;;;21.30;99.90;;;;;;1904356;75;21091;-80
2023/05/22 09:53:49;;;;;;;6.22;4.55;;;21.40;99.90;;;;;;1911764;74;21099;-81
2023/05/22 09:56:43;;;;;;;5.03;3.77;;;21.50;99.90;;;;;;1912952;74;21138;-80
2023/05/22 09:59:39;;;;;;;4.72;4.33;;;21.60;99.90;;;;;;1904751;75;21185;-80
2023/05/22 10:02:30;;;;;;;4.10;3.70;;;21.70;99.90;;;;;;1904260;75;21211;-81
2023/05/22 10:05:22;;;;;;;4.30;3.62;;;21.70;99.90;;;;;;1904078;75;21106;-80
2023/05/22 10:08:17;;;;;;;4.40;4.05;;;21.80;99.90;;;;;;1904098;75;21177;-80
2023/05/22 10:11:09;;;;;;;5.90;4.37;;;21.90;99.90;;;;;;1903727;75;21574;-80
2023/05/22 10:14:02;;;;;;;5.50;4.50;;;21.90;99.90;;;;;;1903729;75;21110;-80
2023/05/22 10:16:55;;;;;;;5.00;4.60;;;22.00;99.90;;;;;;1909307;75;21284;-80
2023/05/22 10:19:48;;;;;;;5.42;4.60;;;22.00;99.90;;;;;;1908503;74;21118;-80
2023/05/22 10:22:40;;;;;;;5.20;4.60;;;22.00;99.90;;;;;;1909273;75;21093;-80
2023/05/22 10:25:31;;;;;;;5.58;5.05;;;22.10;99.90;;;;;;1933684;74;21175;-80
2023/05/22 10:28:26;;;;;;;5.28;4.87;;;22.10;99.90;;;;;;1909047;75;21136;-80
2023/05/22 10:31:22;;;;;;;5.65;4.90;;;22.20;99.90;;;;;;1911066;75;21083;-80
2023/05/22 10:37:22;;;;;;;5.95;5.45;;;22.20;99.90;;;;;;1953048;72;22251;-81
2023/05/22 10:40:17;;;;;;;5.80;5.30;;;22.10;99.90;;;;;;1883782;75;21119;-81
2023/05/22 10:43:08;;;;;;;5.70;5.17;;;22.20;99.90;;;;;;1900387;75;21611;-80
2023/05/22 10:46:05;;;;;;;6.33;5.22;;;22.20;99.90;;;;;;1895199;75;21200;-80
2023/05/22 10:48:57;;;;;;;7.85;5.42;;;22.30;99.90;;;;;;1887065;75;21102;-80
2023/05/22 10:51:49;;;;;;;5.80;5.30;;;22.30;99.90;;;;;;1905250;75;21110;-80
2023/05/22 10:54:42;;;;;;;6.45;5.37;;;22.50;99.90;;;;;;1883288;76;21172;-81
2023/05/22 10:57:34;;;;;;;5.80;5.30;;;22.50;99.90;;;;;;1883172;75;21028;-80
2023/05/22 11:00:25;;;;;;;5.53;5.08;;;22.60;99.90;;;;;;1905143;75;21107;-81
2023/05/22 11:03:18;;;;;;;6.58;5.97;;;22.60;99.90;;;;;;1888180;75;21208;-80
2023/05/22 11:06:12;;;;;;;5.70;5.20;;;22.60;99.90;;;;;;1916964;75;21134;-80
2023/05/22 11:09:21;;;;;;;6.25;5.65;;;22.70;99.90;;;;;;1900607;75;21216;-81
2023/05/22 11:12:21;;;;;;;10.80;5.80;;;22.80;99.90;;;;;;1883852;75;21180;-80
2023/05/22 11:15:14;;;;;;;5.87;5.28;;;22.80;99.90;;;;;;1896482;75;21059;-81
2023/05/22 11:18:06;;;;;;;5.90;5.40;;;22.80;99.90;;;;;;1908722;75;21114;-80
2023/05/22 11:21:00;;;;;;;7.03;6.00;;;22.90;99.90;;;;;;1905777;75;21120;-82
2023/05/22 11:23:51;;;;;;;6.60;5.85;;;22.90;99.90;;;;;;1883910;76;21340;-80
2023/05/22 11:26:44;;;;;;;7.30;4.85;;;23.00;99.90;;;;;;1898185;75;21094;-80
2023/05/22 11:29:36;;;;;;;7.28;5.53;;;23.10;99.90;;;;;;1906958;75;21126;-80
2023/05/22 11:32:29;;;;;;;6.10;5.60;;;23.20;99.90;;;;;;1905752;75;21230;-81
2023/05/22 11:35:22;;;;;;;6.67;6.08;;;23.20;99.90;;;;;;1904370;75;21103;-81
2023/05/22 11:38:15;;;;;;;5.95;5.55;;;23.20;99.90;;;;;;1900668;75;21122;-80
2023/05/22 11:41:08;;;;;;;5.37;4.40;;;23.30;99.90;;;;;;1896113;75;21175;-81
2023/05/22 11:44:00;;;;;;;7.55;5.80;;;23.30;99.90;;;;;;1894663;75;21365;-81
2023/05/22 11:46:52;;;;;;;6.22;5.62;;;23.40;99.90;;;;;;1894573;75;21098;-81
2023/05/22 11:49:43;;;;;;;6.28;5.75;;;23.50;99.90;;;;;;1916145;75;21132;-81
2023/05/22 11:52:36;;;;;;;6.45;5.42;;;23.70;99.90;;;;;;1896473;75;21114;-80
2023/05/22 11:55:28;;;;;;;6.20;5.70;;;23.70;99.90;;;;;;1907946;75;21146;-80
2023/05/22 11:58:28;;;;;;;7.15;5.47;;;23.70;99.90;;;;;;1886030;75;21122;-81
2023/05/22 12:01:19;;;;;;;5.83;5.30;;;23.80;99.90;;;;;;1893988;75;21174;-81
2023/05/22 12:04:10;;;;;;;6.28;5.67;;;23.90;99.90;;;;;;1898935;75;21186;-81
2023/05/22 12:07:02;;;;;;;6.62;5.50;;;23.90;99.90;;;;;;1904827;75;21114;-81
2023/05/22 12:09:55;;;;;;;5.85;5.35;;;24.00;99.90;;;;;;1904553;75;21126;-81
2023/05/22 12:12:46;;;;;;;6.12;5.00;;;24.00;99.90;;;;;;1905133;75;21094;-81
2023/05/22 12:15:38;;;;;;;5.12;4.62;;;24.10;99.90;;;;;;1900476;75;21125;-81
2023/05/22 12:18:36;;;;;;;5.83;5.33;;;24.20;99.90;;;;;;1894902;75;21164;-80
2023/05/22 12:21:26;;;;;;;;;;;24.20;99.90;;;;;;1896761;75;21187;-80
2023/05/22 12:24:22;;;;;;;5.10;4.60;;;24.20;99.90;;;;;;1893950;75;20255;-81
2023/05/22 12:27:13;;;;;;;6.42;5.70;;;24.40;99.90;;;;;;1897251;75;21163;-80
2023/05/22 12:30:12;;;;;;;6.50;5.45;;;24.40;99.90;;;;;;1883240;76;21062;-80
2023/05/22 12:33:04;;;;;;;8.70;5.35;;;24.50;99.90;;;;;;1883328;75;21360;-80
2023/05/22 12:35:57;;;;;;;5.60;5.00;;;24.50;99.90;;;;;;1883532;76;21446;-80
2023/05/22 12:38:57;;;;;;;6.10;5.50;;;24.60;99.90;;;;;;1904770;75;21130;-80
2023/05/22 12:41:54;;;;;;;5.72;5.03;;;24.50;99.90;;;;;;1883346;76;21058;-80
2023/05/22 12:44:50;;;;;;;5.70;5.20;;;24.60;99.90;;;;;;1900380;75;21164;-80
2023/05/22 12:47:40;;;;;;;5.67;5.17;;;24.60;99.90;;;;;;1883154;75;21504;-80
2023/05/22 12:50:32;;;;;;;5.35;4.87;;;24.50;99.90;;;;;;1890408;75;21105;-80
2023/05/22 12:53:24;;;;;;;5.70;5.20;;;24.90;99.90;;;;;;1893506;75;21157;-81
2023/05/22 12:56:15;;;;;;;5.87;5.37;;;25.00;99.90;;;;;;1897251;75;21115;-80
2023/05/22 12:59:10;;;;;;;8.93;5.00;;;25.20;99.90;;;;;;1894927;75;21110;-80
2023/05/22 13:02:02;;;;;;;5.92;5.33;;;25.30;99.90;;;;;;1893602;75;21180;-80
2023/05/22 13:04:54;;;;;;;7.47;5.00;;;25.40;99.90;;;;;;1896469;75;21066;-80
2023/05/22 13:10:24;;;;;;;5.55;4.83;;;25.30;99.90;;;;;;1956921;72;22183;-80
2023/05/22 13:13:15;;;;;;;5.30;4.80;;;25.40;99.90;;;;;;1909231;75;21596;-80
2023/05/22 13:16:07;;;;;;;5.30;4.83;;;25.20;99.90;;;;;;1883441;75;21104;-80
2023/05/22 13:18:58;;;;;;;5.35;4.90;;;25.10;99.90;;;;;;1901817;75;21057;-81
2023/05/22 13:24:29;;;;;;;5.62;4.70;;;25.10;99.90;;;;;;1924249;72;22235;-80
2023/05/22 13:27:20;;;;;;;8.30;5.72;;;25.30;99.90;;;;;;1913523;74;21137;-81
2023/05/22 13:30:13;;;;;;;5.85;5.35;;;25.30;99.90;;;;;;1923128;74;21198;-80
2023/05/22 13:33:04;;;;;;;5.12;4.65;;;25.30;99.90;;;;;;1879639;76;21128;-80
2023/05/22 13:35:56;;;;;;;6.00;5.50;;;25.50;99.90;;;;;;1912049;75;21134;-81
2023/05/22 13:38:47;;;;;;;6.85;5.30;;;25.70;99.90;;;;;;1912790;75;21109;-80
2023/05/22 13:41:39;;;;;;;5.20;4.70;;;25.80;99.90;;;;;;1893814;75;21181;-80
2023/05/22 13:47:09;;;;;;;5.97;5.47;;;26.10;99.90;;;;;;1946719;72;22184;-79
2023/05/22 13:50:01;;;;;;;7.10;5.70;;;26.40;99.90;;;;;;1905970;75;21098;-80
2023/05/22 13:52:55;;;;;;;6.25;5.62;;;26.60;99.90;;;;;;1914115;75;21110;-79
2023/05/22 13:55:47;;;;;;;5.80;5.30;;;26.70;99.90;;;;;;1897032;75;21131;-79
2023/05/22 13:58:38;;;;;;;7.30;5.50;;;27.00;99.90;;;;;;1894882;75;21059;-80
2023/05/22 14:01:30;;;;;;;6.12;5.20;;;27.30;99.90;;;;;;1894610;75;21099;-79
2023/05/22 14:04:21;;;;;;;6.67;5.70;;;27.70;99.90;;;;;;1897681;75;21164;-79
2023/05/22 14:07:12;;;;;;;6.55;5.30;;;28.00;99.90;;;;;;1897934;75;21139;-80
2023/05/22 14:10:06;;;;;;;5.78;5.28;;;28.30;99.90;;;;;;1894629;75;21136;-79
2023/05/22 14:12:58;;;;;;;5.75;5.22;;;28.50;99.90;;;;;;1890098;75;21112;-79
2023/05/22 14:15:50;;;;;;;6.28;5.78;;;28.50;99.90;;;;;;1904913;75;21055;-80
2023/05/22 14:18:41;;;;;;;6.10;5.60;;;28.70;99.90;;;;;;1883964;76;21098;-79
2023/05/22 14:21:33;;;;;;;6.08;5.58;;;28.30;99.90;;;;;;1894949;75;21140;-79
2023/05/22 14:24:25;;;;;;;6.67;5.60;;;28.40;99.90;;;;;;1894839;75;21106;-80
2023/05/22 14:27:16;;;;;;;6.60;5.45;;;28.80;99.90;;;;;;1894832;75;21114;-80
2023/05/22 14:30:12;;;;;;;5.75;5.35;;;29.10;99.90;;;;;;1899096;75;21172;-80
2023/05/22 14:33:03;;;;;;;4.95;4.55;;;28.70;99.90;;;;;;1897267;75;21059;-79
2023/05/22 14:35:55;;;;;;;5.35;4.92;;;28.50;99.90;;;;;;1894453;75;21107;-80
2023/05/22 14:38:46;;;;;;;5.55;5.15;;;28.10;99.90;;;;;;1894740;75;21491;-80
2023/05/22 14:41:38;;;;;;;5.47;5.05;;;27.50;99.90;;;;;;1896792;75;21212;-79
2023/05/22 14:44:29;;;;;;;5.60;5.10;;;27.50;99.90;;;;;;1896763;75;21102;-79
2023/05/22 14:47:21;;;;;;;6.00;4.83;;;27.40;99.90;;;;;;1901263;74;21137;-79
2023/05/22 14:50:13;;;;;;;5.80;4.83;;;27.00;99.90;;;;;;1904298;74;21098;-80
2023/05/22 14:53:06;;;;;;;5.42;5.00;;;26.70;99.90;;;;;;1907014;74;21224;-80
2023/05/22 14:55:57;;;;;;;5.60;5.10;;;26.60;99.90;;;;;;1907679;74;21541;-80
2023/05/22 14:58:49;;;;;;;7.92;4.95;;;26.30;99.90;;;;;;1916743;74;21104;-80
2023/05/22 15:01:40;;;;;;;5.30;4.87;;;26.20;99.90;;;;;;1896398;74;21190;-80
2023/05/22 15:04:32;;;;;;;5.47;4.80;;;26.90;99.90;;;;;;1905278;74;21162;-80
2023/05/22 15:07:23;;;;;;;5.08;4.17;;;26.90;99.90;;;;;;1892995;76;21568;-80
2023/05/22 15:10:16;;;;;;;5.37;4.83;;;26.80;99.90;;;;;;1914831;74;21627;-80
2023/05/22 15:13:07;;;;;;;4.72;4.33;;;27.90;99.90;;;;;;1914447;74;21163;-80
2023/05/22 15:15:59;;;;;;;4.90;4.50;;;28.50;99.90;;;;;;1914241;74;21183;-79
2023/05/22 15:18:51;;;;;;;4.08;3.67;;;28.80;99.90;;;;;;1909591;74;21103;-80
2023/05/22 15:21:43;;;;;;;5.67;3.83;;;29.20;99.90;;;;;;1892974;76;21094;-80
2023/05/22 15:24:35;;;;;;;3.85;3.50;;;28.90;99.90;;;;;;1915009;74;21128;-80